sensor_id;sensor_type;location;lat;lon;timestamp;P1;durP1;ratioP1;P2;durP2;ratioP2
48052;SDS011;33824;51.600;5.718;2022-09-13T00:00:43;9.05;;;5.15;;
48052;SDS011;33824;51.600;5.718;2022-09-13T00:03:26;14.35;;;5.35;;
48052;SDS011;33824;51.600;5.718;2022-09-13T00:05:54;12.48;;;5.03;;
48052;SDS011;33824;51.600;5.718;2022-09-13T00:08:20;9.00;;;4.90;;
48052;SDS011;33824;51.600;5.718;2022-09-13T00:10:45;7.38;;;5.25;;
48052;SDS011;33824;51.600;5.718;2022-09-13T00:13:12;11.65;;;5.00;;
48052;SDS011;33824;51.600;5.718;2022-09-13T00:15:46;12.05;;;4.50;;
48052;SDS011;33824;51.600;5.718;2022-09-13T00:18:13;9.10;;;4.82;;
48052;SDS011;33824;51.600;5.718;2022-09-13T00:20:39;10.73;;;5.00;;
48052;SDS011;33824;51.600;5.718;2022-09-13T00:23:05;9.95;;;4.65;;
48052;SDS011;33824;51.600;5.718;2022-09-13T00:25:31;7.80;;;4.80;;
48052;SDS011;33824;51.600;5.718;2022-09-13T00:27:57;9.10;;;4.28;;
48052;SDS011;33824;51.600;5.718;2022-09-13T00:30:22;9.20;;;4.65;;
48052;SDS011;33824;51.600;5.718;2022-09-13T00:32:48;7.25;;;4.25;;
48052;SDS011;33824;51.600;5.718;2022-09-13T00:35:13;7.45;;;4.45;;
48052;SDS011;33824;51.600;5.718;2022-09-13T00:37:39;6.32;;;4.30;;
48052;SDS011;33824;51.600;5.718;2022-09-13T00:40:04;10.18;;;4.10;;
48052;SDS011;33824;51.600;5.718;2022-09-13T00:42:31;6.88;;;3.80;;
48052;SDS011;33824;51.600;5.718;2022-09-13T00:47:25;8.68;;;4.05;;
48052;SDS011;33824;51.600;5.718;2022-09-13T00:49:53;10.32;;;4.07;;
48052;SDS011;33824;51.600;5.718;2022-09-13T00:54:55;7.82;;;3.80;;
48052;SDS011;33824;51.600;5.718;2022-09-13T00:57:27;6.75;;;4.28;;
48052;SDS011;33824;51.600;5.718;2022-09-13T01:02:36;9.90;;;4.60;;
48052;SDS011;33824;51.600;5.718;2022-09-13T01:05:04;8.23;;;4.25;;
48052;SDS011;33824;51.600;5.718;2022-09-13T01:07:30;7.10;;;4.20;;
48052;SDS011;33824;51.600;5.718;2022-09-13T01:09:56;5.80;;;4.00;;
48052;SDS011;33824;51.600;5.718;2022-09-13T01:14:57;6.25;;;3.95;;
48052;SDS011;33824;51.600;5.718;2022-09-13T01:17:26;10.63;;;4.63;;
48052;SDS011;33824;51.600;5.718;2022-09-13T01:19:53;7.30;;;4.03;;
48052;SDS011;33824;51.600;5.718;2022-09-13T01:47:21;5.47;;;3.70;;
48052;SDS011;33824;51.600;5.718;2022-09-13T01:56:01;7.40;;;3.50;;
48052;SDS011;33824;51.600;5.718;2022-09-13T01:59:10;6.53;;;3.20;;
48052;SDS011;33824;51.600;5.718;2022-09-13T02:01:45;6.82;;;3.70;;
48052;SDS011;33824;51.600;5.718;2022-09-13T02:04:21;6.95;;;3.38;;
48052;SDS011;33824;51.600;5.718;2022-09-13T02:06:52;4.75;;;3.10;;
48052;SDS011;33824;51.600;5.718;2022-09-13T02:09:25;7.05;;;3.30;;
48052;SDS011;33824;51.600;5.718;2022-09-13T02:11:59;4.32;;;3.13;;
48052;SDS011;33824;51.600;5.718;2022-09-13T02:14:39;5.47;;;3.28;;
48052;SDS011;33824;51.600;5.718;2022-09-13T02:17:08;5.20;;;3.42;;
48052;SDS011;33824;51.600;5.718;2022-09-13T02:19:42;8.15;;;3.10;;
48052;SDS011;33824;51.600;5.718;2022-09-13T02:22:17;6.18;;;3.15;;
48052;SDS011;33824;51.600;5.718;2022-09-13T02:24:47;6.35;;;2.97;;
48052;SDS011;33824;51.600;5.718;2022-09-13T02:27:18;9.52;;;3.60;;
48052;SDS011;33824;51.600;5.718;2022-09-13T02:29:49;7.07;;;3.70;;
48052;SDS011;33824;51.600;5.718;2022-09-13T02:32:21;4.65;;;3.40;;
48052;SDS011;33824;51.600;5.718;2022-09-13T02:34:52;8.38;;;3.25;;
48052;SDS011;33824;51.600;5.718;2022-09-13T02:37:22;4.73;;;3.17;;
48052;SDS011;33824;51.600;5.718;2022-09-13T02:39:51;5.85;;;3.38;;
48052;SDS011;33824;51.600;5.718;2022-09-13T02:42:28;6.32;;;3.85;;
48052;SDS011;33824;51.600;5.718;2022-09-13T02:45:00;6.65;;;3.42;;
48052;SDS011;33824;51.600;5.718;2022-09-13T02:58:34;9.85;;;2.90;;
48052;SDS011;33824;51.600;5.718;2022-09-13T03:01:08;3.70;;;2.47;;
48052;SDS011;33824;51.600;5.718;2022-09-13T03:03:33;6.80;;;3.47;;
48052;SDS011;33824;51.600;5.718;2022-09-13T03:05:59;6.65;;;3.45;;
48052;SDS011;33824;51.600;5.718;2022-09-13T03:08:25;4.18;;;2.97;;
48052;SDS011;33824;51.600;5.718;2022-09-13T03:22:44;5.95;;;2.75;;
48052;SDS011;33824;51.600;5.718;2022-09-13T03:25:23;6.55;;;3.55;;
48052;SDS011;33824;51.600;5.718;2022-09-13T03:30:26;8.55;;;3.45;;
48052;SDS011;33824;51.600;5.718;2022-09-13T03:38:26;4.93;;;3.13;;
48052;SDS011;33824;51.600;5.718;2022-09-13T03:41:08;6.68;;;3.17;;
48052;SDS011;33824;51.600;5.718;2022-09-13T03:43:52;4.30;;;3.28;;
48052;SDS011;33824;51.600;5.718;2022-09-13T03:46:37;6.05;;;3.53;;
48052;SDS011;33824;51.600;5.718;2022-09-13T03:49:10;10.65;;;3.13;;
48052;SDS011;33824;51.600;5.718;2022-09-13T03:51:42;7.30;;;3.17;;
48052;SDS011;33824;51.600;5.718;2022-09-13T03:54:13;5.18;;;3.10;;
48052;SDS011;33824;51.600;5.718;2022-09-13T03:56:43;6.20;;;3.35;;
48052;SDS011;33824;51.600;5.718;2022-09-13T03:59:37;6.55;;;3.20;;
48052;SDS011;33824;51.600;5.718;2022-09-13T04:02:05;7.63;;;3.35;;
48052;SDS011;33824;51.600;5.718;2022-09-13T04:04:35;4.38;;;3.03;;
48052;SDS011;33824;51.600;5.718;2022-09-13T04:07:00;6.18;;;3.08;;
48052;SDS011;33824;51.600;5.718;2022-09-13T04:09:28;4.60;;;3.13;;
48052;SDS011;33824;51.600;5.718;2022-09-13T04:11:54;5.35;;;3.22;;
48052;SDS011;33824;51.600;5.718;2022-09-13T04:14:20;11.48;;;3.65;;
48052;SDS011;33824;51.600;5.718;2022-09-13T04:16:45;6.32;;;3.40;;
48052;SDS011;33824;51.600;5.718;2022-09-13T04:19:11;9.15;;;3.08;;
48052;SDS011;33824;51.600;5.718;2022-09-13T04:21:36;3.60;;;2.88;;
48052;SDS011;33824;51.600;5.718;2022-09-13T04:24:02;6.15;;;3.08;;
48052;SDS011;33824;51.600;5.718;2022-09-13T04:26:28;5.82;;;3.50;;
48052;SDS011;33824;51.600;5.718;2022-09-13T04:28:53;6.68;;;3.60;;
48052;SDS011;33824;51.600;5.718;2022-09-13T04:31:19;8.10;;;3.15;;
48052;SDS011;33824;51.600;5.718;2022-09-13T04:33:44;5.57;;;3.40;;
48052;SDS011;33824;51.600;5.718;2022-09-13T04:36:10;6.45;;;3.45;;
48052;SDS011;33824;51.600;5.718;2022-09-13T04:38:35;5.22;;;3.28;;
48052;SDS011;33824;51.600;5.718;2022-09-13T04:41:01;5.53;;;3.47;;
48052;SDS011;33824;51.600;5.718;2022-09-13T04:43:27;7.22;;;3.95;;
48052;SDS011;33824;51.600;5.718;2022-09-13T04:45:52;5.88;;;3.80;;
48052;SDS011;33824;51.600;5.718;2022-09-13T04:48:18;5.28;;;3.70;;
48052;SDS011;33824;51.600;5.718;2022-09-13T04:50:43;5.40;;;3.83;;
48052;SDS011;33824;51.600;5.718;2022-09-13T04:53:09;8.30;;;3.78;;
48052;SDS011;33824;51.600;5.718;2022-09-13T04:55:35;7.07;;;4.00;;
48052;SDS011;33824;51.600;5.718;2022-09-13T04:58:01;8.07;;;3.85;;
48052;SDS011;33824;51.600;5.718;2022-09-13T05:00:28;9.07;;;4.53;;
48052;SDS011;33824;51.600;5.718;2022-09-13T05:02:57;9.30;;;4.00;;
48052;SDS011;33824;51.600;5.718;2022-09-13T05:05:23;8.45;;;4.97;;
48052;SDS011;33824;51.600;5.718;2022-09-13T05:07:50;6.97;;;3.88;;
48052;SDS011;33824;51.600;5.718;2022-09-13T05:10:16;10.75;;;4.30;;
48052;SDS011;33824;51.600;5.718;2022-09-13T05:12:42;12.85;;;3.78;;
48052;SDS011;33824;51.600;5.718;2022-09-13T05:15:08;7.85;;;4.15;;
48052;SDS011;33824;51.600;5.718;2022-09-13T05:17:34;9.07;;;4.13;;
48052;SDS011;33824;51.600;5.718;2022-09-13T05:20:00;7.90;;;4.20;;
48052;SDS011;33824;51.600;5.718;2022-09-13T05:22:26;5.95;;;3.90;;
48052;SDS011;33824;51.600;5.718;2022-09-13T05:24:51;5.97;;;4.07;;
48052;SDS011;33824;51.600;5.718;2022-09-13T05:27:16;7.38;;;4.35;;
48052;SDS011;33824;51.600;5.718;2022-09-13T05:29:42;6.68;;;4.00;;
48052;SDS011;33824;51.600;5.718;2022-09-13T05:32:07;7.38;;;3.65;;
48052;SDS011;33824;51.600;5.718;2022-09-13T05:34:33;7.43;;;4.00;;
48052;SDS011;33824;51.600;5.718;2022-09-13T05:36:58;9.55;;;4.63;;
48052;SDS011;33824;51.600;5.718;2022-09-13T05:39:24;9.77;;;4.82;;
48052;SDS011;33824;51.600;5.718;2022-09-13T05:41:49;10.18;;;4.28;;
48052;SDS011;33824;51.600;5.718;2022-09-13T05:44:15;6.90;;;4.22;;
48052;SDS011;33824;51.600;5.718;2022-09-13T05:46:40;6.82;;;3.90;;
48052;SDS011;33824;51.600;5.718;2022-09-13T05:49:07;8.48;;;4.28;;
48052;SDS011;33824;51.600;5.718;2022-09-13T05:51:32;8.27;;;4.43;;
48052;SDS011;33824;51.600;5.718;2022-09-13T05:53:58;7.13;;;4.10;;
48052;SDS011;33824;51.600;5.718;2022-09-13T05:56:25;7.80;;;4.15;;
48052;SDS011;33824;51.600;5.718;2022-09-13T05:58:52;6.57;;;4.10;;
48052;SDS011;33824;51.600;5.718;2022-09-13T06:01:24;7.00;;;4.20;;
48052;SDS011;33824;51.600;5.718;2022-09-13T06:03:56;8.73;;;4.50;;
48052;SDS011;33824;51.600;5.718;2022-09-13T06:06:23;6.07;;;4.47;;
48052;SDS011;33824;51.600;5.718;2022-09-13T06:08:52;5.65;;;4.15;;
48052;SDS011;33824;51.600;5.718;2022-09-13T06:11:19;11.27;;;4.95;;
48052;SDS011;33824;51.600;5.718;2022-09-13T06:13:44;6.82;;;4.55;;
48052;SDS011;33824;51.600;5.718;2022-09-13T06:16:11;8.82;;;5.40;;
48052;SDS011;33824;51.600;5.718;2022-09-13T06:18:38;7.25;;;4.60;;
48052;SDS011;33824;51.600;5.718;2022-09-13T06:21:05;7.32;;;4.72;;
48052;SDS011;33824;51.600;5.718;2022-09-13T06:23:32;11.82;;;5.68;;
48052;SDS011;33824;51.600;5.718;2022-09-13T06:25:58;11.55;;;4.97;;
48052;SDS011;33824;51.600;5.718;2022-09-13T06:28:28;8.63;;;5.43;;
48052;SDS011;33824;51.600;5.718;2022-09-13T06:31:01;12.57;;;4.60;;
48052;SDS011;33824;51.600;5.718;2022-09-13T06:33:30;12.55;;;5.22;;
48052;SDS011;33824;51.600;5.718;2022-09-13T06:36:01;6.53;;;4.53;;
48052;SDS011;33824;51.600;5.718;2022-09-13T06:38:28;8.10;;;4.90;;
48052;SDS011;33824;51.600;5.718;2022-09-13T06:41:04;9.45;;;4.90;;
48052;SDS011;33824;51.600;5.718;2022-09-13T06:43:30;10.95;;;5.20;;
48052;SDS011;33824;51.600;5.718;2022-09-13T06:46:08;11.50;;;5.32;;
48052;SDS011;33824;51.600;5.718;2022-09-13T06:48:39;9.75;;;5.78;;
48052;SDS011;33824;51.600;5.718;2022-09-13T06:51:08;12.38;;;5.32;;
48052;SDS011;33824;51.600;5.718;2022-09-13T06:53:35;9.27;;;5.88;;
48052;SDS011;33824;51.600;5.718;2022-09-13T06:56:04;10.93;;;6.70;;
48052;SDS011;33824;51.600;5.718;2022-09-13T06:58:53;9.43;;;6.38;;
48052;SDS011;33824;51.600;5.718;2022-09-13T07:01:21;9.88;;;5.65;;
48052;SDS011;33824;51.600;5.718;2022-09-13T07:03:50;10.95;;;6.15;;
48052;SDS011;33824;51.600;5.718;2022-09-13T07:06:19;11.85;;;6.40;;
48052;SDS011;33824;51.600;5.718;2022-09-13T07:08:46;11.23;;;6.55;;
48052;SDS011;33824;51.600;5.718;2022-09-13T07:11:13;13.45;;;7.63;;
48052;SDS011;33824;51.600;5.718;2022-09-13T07:13:46;12.57;;;6.75;;
48052;SDS011;33824;51.600;5.718;2022-09-13T07:16:19;10.77;;;7.13;;
48052;SDS011;33824;51.600;5.718;2022-09-13T07:18:53;19.00;;;7.90;;
48052;SDS011;33824;51.600;5.718;2022-09-13T07:21:21;13.38;;;7.07;;
48052;SDS011;33824;51.600;5.718;2022-09-13T07:23:47;12.00;;;7.95;;
48052;SDS011;33824;51.600;5.718;2022-09-13T07:26:13;15.02;;;8.00;;
48052;SDS011;33824;51.600;5.718;2022-09-13T07:28:40;16.73;;;8.35;;
48052;SDS011;33824;51.600;5.718;2022-09-13T07:31:50;12.63;;;8.13;;
48052;SDS011;33824;51.600;5.718;2022-09-13T07:34:04;11.63;;;7.88;;
48052;SDS011;33824;51.600;5.718;2022-09-13T07:36:32;18.08;;;9.90;;
48052;SDS011;33824;51.600;5.718;2022-09-13T07:39:00;16.33;;;8.90;;
48052;SDS011;33824;51.600;5.718;2022-09-13T07:41:26;17.85;;;10.52;;
48052;SDS011;33824;51.600;5.718;2022-09-13T07:43:53;16.55;;;10.23;;
48052;SDS011;33824;51.600;5.718;2022-09-13T07:46:23;17.83;;;10.43;;
48052;SDS011;33824;51.600;5.718;2022-09-13T07:48:54;16.73;;;10.00;;
48052;SDS011;33824;51.600;5.718;2022-09-13T07:51:24;19.42;;;11.52;;
48052;SDS011;33824;51.600;5.718;2022-09-13T07:53:53;18.38;;;11.18;;
48052;SDS011;33824;51.600;5.718;2022-09-13T07:56:21;21.35;;;11.75;;
48052;SDS011;33824;51.600;5.718;2022-09-13T07:58:49;19.95;;;11.57;;
48052;SDS011;33824;51.600;5.718;2022-09-13T08:03:44;18.65;;;11.80;;
48052;SDS011;33824;51.600;5.718;2022-09-13T08:06:17;24.75;;;12.57;;
48052;SDS011;33824;51.600;5.718;2022-09-13T08:08:43;26.23;;;13.23;;
48052;SDS011;33824;51.600;5.718;2022-09-13T08:11:09;24.88;;;13.23;;
48052;SDS011;33824;51.600;5.718;2022-09-13T08:13:41;26.33;;;12.45;;
48052;SDS011;33824;51.600;5.718;2022-09-13T08:16:07;22.60;;;12.35;;
48052;SDS011;33824;51.600;5.718;2022-09-13T08:18:32;24.48;;;11.85;;
48052;SDS011;33824;51.600;5.718;2022-09-13T08:20:58;26.83;;;12.70;;
48052;SDS011;33824;51.600;5.718;2022-09-13T08:23:25;23.90;;;12.35;;
48052;SDS011;33824;51.600;5.718;2022-09-13T08:25:51;24.85;;;13.45;;
48052;SDS011;33824;51.600;5.718;2022-09-13T08:28:17;20.20;;;11.73;;
48052;SDS011;33824;51.600;5.718;2022-09-13T08:30:48;18.88;;;11.85;;
48052;SDS011;33824;51.600;5.718;2022-09-13T08:33:14;18.92;;;11.95;;
48052;SDS011;33824;51.600;5.718;2022-09-13T08:35:40;18.70;;;12.77;;
48052;SDS011;33824;51.600;5.718;2022-09-13T08:38:13;22.27;;;12.13;;
48052;SDS011;33824;51.600;5.718;2022-09-13T08:40:39;24.13;;;13.43;;
48052;SDS011;33824;51.600;5.718;2022-09-13T08:45:54;20.13;;;12.05;;
48052;SDS011;33824;51.600;5.718;2022-09-13T08:48:30;23.30;;;12.93;;
48052;SDS011;33824;51.600;5.718;2022-09-13T08:51:00;23.67;;;13.45;;
48052;SDS011;33824;51.600;5.718;2022-09-13T08:53:35;20.45;;;12.48;;
48052;SDS011;33824;51.600;5.718;2022-09-13T08:56:12;21.92;;;12.90;;
48052;SDS011;33824;51.600;5.718;2022-09-13T08:59:05;22.33;;;13.45;;
48052;SDS011;33824;51.600;5.718;2022-09-13T09:02:08;23.90;;;12.15;;
48052;SDS011;33824;51.600;5.718;2022-09-13T09:05:02;21.83;;;12.57;;
48052;SDS011;33824;51.600;5.718;2022-09-13T09:07:39;22.73;;;12.93;;
48052;SDS011;33824;51.600;5.718;2022-09-13T09:10:19;22.63;;;13.07;;
48052;SDS011;33824;51.600;5.718;2022-09-13T09:12:49;22.92;;;13.18;;
48052;SDS011;33824;51.600;5.718;2022-09-13T09:15:23;25.02;;;12.23;;
48052;SDS011;33824;51.600;5.718;2022-09-13T09:18:00;21.30;;;12.00;;
48052;SDS011;33824;51.600;5.718;2022-09-13T09:20:29;20.98;;;12.40;;
48052;SDS011;33824;51.600;5.718;2022-09-13T09:25:37;20.45;;;12.38;;
48052;SDS011;33824;51.600;5.718;2022-09-13T09:28:08;18.50;;;11.30;;
48052;SDS011;33824;51.600;5.718;2022-09-13T09:36:13;20.48;;;12.27;;
48052;SDS011;33824;51.600;5.718;2022-09-13T09:38:44;17.73;;;11.48;;
48052;SDS011;33824;51.600;5.718;2022-09-13T09:41:23;16.48;;;10.07;;
48052;SDS011;33824;51.600;5.718;2022-09-13T09:46:36;17.00;;;11.32;;
48052;SDS011;33824;51.600;5.718;2022-09-13T09:51:59;20.90;;;11.93;;
48052;SDS011;33824;51.600;5.718;2022-09-13T09:54:31;19.50;;;11.80;;
48052;SDS011;33824;51.600;5.718;2022-09-13T09:56:57;19.77;;;10.77;;
48052;SDS011;33824;51.600;5.718;2022-09-13T09:59:27;16.08;;;10.00;;
48052;SDS011;33824;51.600;5.718;2022-09-13T10:01:55;18.55;;;10.00;;
48052;SDS011;33824;51.600;5.718;2022-09-13T10:04:22;16.48;;;10.23;;
48052;SDS011;33824;51.600;5.718;2022-09-13T10:06:48;14.90;;;9.48;;
48052;SDS011;33824;51.600;5.718;2022-09-13T10:09:16;16.00;;;9.23;;
48052;SDS011;33824;51.600;5.718;2022-09-13T10:11:53;13.18;;;7.57;;
48052;SDS011;33824;51.600;5.718;2022-09-13T10:14:25;13.63;;;8.10;;
48052;SDS011;33824;51.600;5.718;2022-09-13T10:17:00;12.90;;;7.15;;
48052;SDS011;33824;51.600;5.718;2022-09-13T10:19:39;13.63;;;7.65;;
48052;SDS011;33824;51.600;5.718;2022-09-13T10:22:11;16.58;;;9.02;;
48052;SDS011;33824;51.600;5.718;2022-09-13T10:27:03;10.30;;;6.97;;
48052;SDS011;33824;51.600;5.718;2022-09-13T10:29:45;10.02;;;6.32;;
48052;SDS011;33824;51.600;5.718;2022-09-13T10:32:13;14.43;;;7.18;;
48052;SDS011;33824;51.600;5.718;2022-09-13T10:34:40;12.75;;;7.22;;
48052;SDS011;33824;51.600;5.718;2022-09-13T10:37:16;12.50;;;6.90;;
48052;SDS011;33824;51.600;5.718;2022-09-13T10:42:25;11.48;;;6.93;;
48052;SDS011;33824;51.600;5.718;2022-09-13T10:44:53;11.20;;;6.50;;
48052;SDS011;33824;51.600;5.718;2022-09-13T10:47:26;10.55;;;7.03;;
48052;SDS011;33824;51.600;5.718;2022-09-13T10:49:58;8.95;;;6.18;;
48052;SDS011;33824;51.600;5.718;2022-09-13T10:52:44;11.45;;;7.00;;
48052;SDS011;33824;51.600;5.718;2022-09-13T10:57:43;9.20;;;6.03;;
48052;SDS011;33824;51.600;5.718;2022-09-13T11:00:16;7.90;;;4.95;;
48052;SDS011;33824;51.600;5.718;2022-09-13T11:14:13;9.10;;;4.60;;
48052;SDS011;33824;51.600;5.718;2022-09-13T11:40:15;10.13;;;4.72;;
48052;SDS011;33824;51.600;5.718;2022-09-13T11:42:48;6.50;;;4.32;;
48052;SDS011;33824;51.600;5.718;2022-09-13T11:45:28;11.65;;;4.80;;
48052;SDS011;33824;51.600;5.718;2022-09-13T11:48:01;8.57;;;5.05;;
48052;SDS011;33824;51.600;5.718;2022-09-13T11:50:39;12.43;;;5.45;;
48052;SDS011;33824;51.600;5.718;2022-09-13T11:56:23;7.88;;;4.47;;
48052;SDS011;33824;51.600;5.718;2022-09-13T11:58:55;9.02;;;4.53;;
48052;SDS011;33824;51.600;5.718;2022-09-13T12:01:33;6.28;;;4.20;;
48052;SDS011;33824;51.600;5.718;2022-09-13T12:04:52;11.55;;;5.93;;
48052;SDS011;33824;51.600;5.718;2022-09-13T12:07:14;6.90;;;3.92;;
48052;SDS011;33824;51.600;5.718;2022-09-13T12:09:53;10.90;;;6.03;;
48052;SDS011;33824;51.600;5.718;2022-09-13T12:12:25;10.43;;;5.70;;
48052;SDS011;33824;51.600;5.718;2022-09-13T12:15:02;8.18;;;4.68;;
48052;SDS011;33824;51.600;5.718;2022-09-13T12:17:39;6.88;;;4.32;;
48052;SDS011;33824;51.600;5.718;2022-09-13T12:20:12;8.20;;;4.20;;
48052;SDS011;33824;51.600;5.718;2022-09-13T12:22:53;7.95;;;4.25;;
48052;SDS011;33824;51.600;5.718;2022-09-13T12:25:24;7.90;;;4.30;;
48052;SDS011;33824;51.600;5.718;2022-09-13T12:27:58;8.65;;;4.80;;
48052;SDS011;33824;51.600;5.718;2022-09-13T12:30:39;9.25;;;5.05;;
48052;SDS011;33824;51.600;5.718;2022-09-13T12:33:14;9.97;;;4.93;;
48052;SDS011;33824;51.600;5.718;2022-09-13T12:36:03;9.85;;;5.55;;
48052;SDS011;33824;51.600;5.718;2022-09-13T12:41:37;5.47;;;3.72;;
48052;SDS011;33824;51.600;5.718;2022-09-13T12:44:33;6.93;;;4.22;;
48052;SDS011;33824;51.600;5.718;2022-09-13T12:49:49;8.90;;;4.85;;
48052;SDS011;33824;51.600;5.718;2022-09-13T12:55:50;11.25;;;5.22;;
48052;SDS011;33824;51.600;5.718;2022-09-13T13:01:04;8.02;;;4.53;;
48052;SDS011;33824;51.600;5.718;2022-09-13T13:03:35;10.20;;;5.22;;
48052;SDS011;33824;51.600;5.718;2022-09-13T13:06:12;6.60;;;4.55;;
48052;SDS011;33824;51.600;5.718;2022-09-13T13:08:40;10.35;;;4.82;;
48052;SDS011;33824;51.600;5.718;2022-09-13T13:11:15;13.15;;;4.18;;
48052;SDS011;33824;51.600;5.718;2022-09-13T13:13:58;5.63;;;4.18;;
48052;SDS011;33824;51.600;5.718;2022-09-13T13:16:39;6.68;;;4.25;;
48052;SDS011;33824;51.600;5.718;2022-09-13T13:19:27;8.05;;;4.05;;
48052;SDS011;33824;51.600;5.718;2022-09-13T13:21:55;8.32;;;4.20;;
48052;SDS011;33824;51.600;5.718;2022-09-13T13:24:59;5.95;;;3.83;;
48052;SDS011;33824;51.600;5.718;2022-09-13T13:27:55;6.90;;;3.92;;
48052;SDS011;33824;51.600;5.718;2022-09-13T13:30:39;9.07;;;4.15;;
48052;SDS011;33824;51.600;5.718;2022-09-13T13:33:16;6.80;;;3.50;;
48052;SDS011;33824;51.600;5.718;2022-09-13T13:35:46;5.63;;;3.10;;
48052;SDS011;33824;51.600;5.718;2022-09-13T13:38:16;8.48;;;4.05;;
48052;SDS011;33824;51.600;5.718;2022-09-13T13:40:48;6.45;;;4.55;;
48052;SDS011;33824;51.600;5.718;2022-09-13T13:43:28;7.43;;;3.85;;
48052;SDS011;33824;51.600;5.718;2022-09-13T13:45:55;6.43;;;3.90;;
48052;SDS011;33824;51.600;5.718;2022-09-13T13:48:44;11.75;;;4.13;;
48052;SDS011;33824;51.600;5.718;2022-09-13T13:53:41;7.20;;;3.05;;
48052;SDS011;33824;51.600;5.718;2022-09-13T14:01:23;5.60;;;3.35;;
48052;SDS011;33824;51.600;5.718;2022-09-13T14:03:58;5.00;;;3.33;;
48052;SDS011;33824;51.600;5.718;2022-09-13T14:09:38;4.90;;;3.10;;
48052;SDS011;33824;51.600;5.718;2022-09-13T14:15:04;5.03;;;3.10;;
48052;SDS011;33824;51.600;5.718;2022-09-13T14:21:00;7.72;;;4.40;;
48052;SDS011;33824;51.600;5.718;2022-09-13T14:23:29;11.98;;;5.13;;
48052;SDS011;33824;51.600;5.718;2022-09-13T14:25:56;6.65;;;4.30;;
48052;SDS011;33824;51.600;5.718;2022-09-13T14:28:23;8.23;;;4.60;;
48052;SDS011;33824;51.600;5.718;2022-09-13T14:30:53;5.25;;;3.88;;
48052;SDS011;33824;51.600;5.718;2022-09-13T14:33:22;8.63;;;3.58;;
48052;SDS011;33824;51.600;5.718;2022-09-13T14:35:59;7.13;;;3.72;;
48052;SDS011;33824;51.600;5.718;2022-09-13T14:38:29;7.43;;;3.38;;
48052;SDS011;33824;51.600;5.718;2022-09-13T14:43:28;6.88;;;3.72;;
48052;SDS011;33824;51.600;5.718;2022-09-13T14:46:15;6.95;;;3.20;;
48052;SDS011;33824;51.600;5.718;2022-09-13T14:51:32;5.43;;;2.92;;
48052;SDS011;33824;51.600;5.718;2022-09-13T14:54:03;4.30;;;2.45;;
48052;SDS011;33824;51.600;5.718;2022-09-13T14:56:55;6.25;;;2.05;;
48052;SDS011;33824;51.600;5.718;2022-09-13T14:59:43;3.17;;;1.88;;
48052;SDS011;33824;51.600;5.718;2022-09-13T15:02:24;4.97;;;1.88;;
48052;SDS011;33824;51.600;5.718;2022-09-13T15:04:54;4.30;;;2.42;;
48052;SDS011;33824;51.600;5.718;2022-09-13T15:07:32;6.22;;;2.42;;
48052;SDS011;33824;51.600;5.718;2022-09-13T15:10:18;6.80;;;2.80;;
48052;SDS011;33824;51.600;5.718;2022-09-13T15:12:51;4.93;;;2.40;;
48052;SDS011;33824;51.600;5.718;2022-09-13T15:17:59;2.28;;;1.08;;
48052;SDS011;33824;51.600;5.718;2022-09-13T15:28:32;3.75;;;1.30;;
48052;SDS011;33824;51.600;5.718;2022-09-13T15:31:45;4.07;;;1.38;;
48052;SDS011;33824;51.600;5.718;2022-09-13T15:36:42;3.90;;;1.27;;
48052;SDS011;33824;51.600;5.718;2022-09-13T15:41:35;6.28;;;1.15;;
48052;SDS011;33824;51.600;5.718;2022-09-13T15:44:02;2.28;;;0.98;;
48052;SDS011;33824;51.600;5.718;2022-09-13T15:46:30;3.28;;;1.33;;
48052;SDS011;33824;51.600;5.718;2022-09-13T15:48:57;4.68;;;1.38;;
48052;SDS011;33824;51.600;5.718;2022-09-13T15:51:26;5.07;;;1.77;;
48052;SDS011;33824;51.600;5.718;2022-09-13T15:53:51;5.28;;;1.55;;
48052;SDS011;33824;51.600;5.718;2022-09-13T15:56:19;3.28;;;1.65;;
48052;SDS011;33824;51.600;5.718;2022-09-13T15:58:47;1.63;;;1.23;;
48052;SDS011;33824;51.600;5.718;2022-09-13T16:01:13;4.07;;;1.25;;
48052;SDS011;33824;51.600;5.718;2022-09-13T16:03:39;2.35;;;1.10;;
48052;SDS011;33824;51.600;5.718;2022-09-13T16:06:05;5.15;;;1.50;;
48052;SDS011;33824;51.600;5.718;2022-09-13T16:08:36;6.93;;;1.52;;
48052;SDS011;33824;51.600;5.718;2022-09-13T16:11:03;7.93;;;1.33;;
48052;SDS011;33824;51.600;5.718;2022-09-13T16:13:29;4.15;;;1.35;;
48052;SDS011;33824;51.600;5.718;2022-09-13T16:15:55;3.78;;;1.25;;
48052;SDS011;33824;51.600;5.718;2022-09-13T16:18:21;2.58;;;1.25;;
48052;SDS011;33824;51.600;5.718;2022-09-13T16:20:48;8.20;;;1.63;;
48052;SDS011;33824;51.600;5.718;2022-09-13T16:23:14;6.00;;;1.35;;
48052;SDS011;33824;51.600;5.718;2022-09-13T16:25:39;1.58;;;1.02;;
48052;SDS011;33824;51.600;5.718;2022-09-13T16:28:05;2.47;;;1.52;;
48052;SDS011;33824;51.600;5.718;2022-09-13T16:30:34;5.30;;;1.83;;
48052;SDS011;33824;51.600;5.718;2022-09-13T16:33:00;7.75;;;2.20;;
48052;SDS011;33824;51.600;5.718;2022-09-13T16:35:26;2.75;;;1.80;;
48052;SDS011;33824;51.600;5.718;2022-09-13T16:37:54;3.50;;;2.00;;
48052;SDS011;33824;51.600;5.718;2022-09-13T16:40:19;3.72;;;1.80;;
48052;SDS011;33824;51.600;5.718;2022-09-13T16:42:45;5.72;;;1.38;;
48052;SDS011;33824;51.600;5.718;2022-09-13T16:45:11;3.50;;;1.20;;
48052;SDS011;33824;51.600;5.718;2022-09-13T16:47:36;3.80;;;1.50;;
48052;SDS011;33824;51.600;5.718;2022-09-13T16:50:03;2.35;;;1.30;;
48052;SDS011;33824;51.600;5.718;2022-09-13T16:52:31;2.83;;;1.40;;
48052;SDS011;33824;51.600;5.718;2022-09-13T16:54:57;2.17;;;1.20;;
48052;SDS011;33824;51.600;5.718;2022-09-13T16:57:23;2.15;;;1.30;;
48052;SDS011;33824;51.600;5.718;2022-09-13T16:59:50;3.45;;;1.30;;
48052;SDS011;33824;51.600;5.718;2022-09-13T17:02:17;3.08;;;1.00;;
48052;SDS011;33824;51.600;5.718;2022-09-13T17:04:43;1.95;;;0.93;;
48052;SDS011;33824;51.600;5.718;2022-09-13T17:07:10;5.80;;;0.82;;
48052;SDS011;33824;51.600;5.718;2022-09-13T17:09:36;4.68;;;1.55;;
48052;SDS011;33824;51.600;5.718;2022-09-13T17:12:08;6.05;;;1.00;;
48052;SDS011;33824;51.600;5.718;2022-09-13T17:14:36;2.42;;;0.95;;
48052;SDS011;33824;51.600;5.718;2022-09-13T17:17:03;2.38;;;0.90;;
48052;SDS011;33824;51.600;5.718;2022-09-13T17:19:30;4.18;;;1.02;;
48052;SDS011;33824;51.600;5.718;2022-09-13T17:24:27;1.75;;;0.85;;
48052;SDS011;33824;51.600;5.718;2022-09-13T17:26:55;2.97;;;1.40;;
48052;SDS011;33824;51.600;5.718;2022-09-13T17:29:21;3.60;;;1.10;;
48052;SDS011;33824;51.600;5.718;2022-09-13T17:31:46;4.45;;;1.15;;
48052;SDS011;33824;51.600;5.718;2022-09-13T17:34:12;3.28;;;1.38;;
48052;SDS011;33824;51.600;5.718;2022-09-13T17:36:38;5.20;;;1.55;;
48052;SDS011;33824;51.600;5.718;2022-09-13T17:39:05;8.85;;;1.23;;
48052;SDS011;33824;51.600;5.718;2022-09-13T17:41:32;4.85;;;1.27;;
48052;SDS011;33824;51.600;5.718;2022-09-13T17:43:58;2.13;;;1.10;;
48052;SDS011;33824;51.600;5.718;2022-09-13T17:46:24;8.30;;;1.35;;
48052;SDS011;33824;51.600;5.718;2022-09-13T17:48:55;6.32;;;1.42;;
48052;SDS011;33824;51.600;5.718;2022-09-13T17:51:24;3.58;;;1.25;;
48052;SDS011;33824;51.600;5.718;2022-09-13T17:53:51;4.65;;;1.48;;
48052;SDS011;33824;51.600;5.718;2022-09-13T17:56:19;8.52;;;1.35;;
48052;SDS011;33824;51.600;5.718;2022-09-13T17:58:54;7.72;;;1.40;;
48052;SDS011;33824;51.600;5.718;2022-09-13T18:01:32;10.77;;;1.30;;
48052;SDS011;33824;51.600;5.718;2022-09-13T18:03:58;5.80;;;1.08;;
48052;SDS011;33824;51.600;5.718;2022-09-13T18:06:26;3.70;;;1.00;;
48052;SDS011;33824;51.600;5.718;2022-09-13T18:08:52;1.80;;;1.13;;
48052;SDS011;33824;51.600;5.718;2022-09-13T18:11:20;4.32;;;1.00;;